Time;durP1;ratioP1;P1;durP2;ratioP2;P2;SDS_P1;SDS_P2;PMS_P1;PMS_P2;Temp;Humidity;BMP_temperature;BMP_pressure;BME280_temperature;BME280_humidity;BME280_pressure;Samples;Min_cycle;Max_cycle;Signal;HPM_P1;HPM_P2
2023/10/29 00:02:01;;;;;;;5.13;2.65;;;7.80;99.90;;;;;;5096470;28;20076;-77
2023/10/29 00:04:49;;;;;;;5.40;2.75;;;7.90;99.90;;;;;;5115369;27;20062;-79
2023/10/29 00:07:39;;;;;;;7.88;2.65;;;7.90;99.90;;;;;;5113253;27;20054;-77
2023/10/29 00:10:29;;;;;;;5.70;2.13;;;7.90;99.90;;;;;;5109302;27;20050;-78
2023/10/29 00:13:23;;;;;;;4.93;2.33;;;8.00;99.90;;;;;;5113794;27;20100;-78
2023/10/29 00:16:11;;;;;;;5.15;2.30;;;8.20;99.90;;;;;;5105943;27;20470;-79
2023/10/29 00:18:58;;;;;;;10.95;2.47;;;8.30;84.90;;;;;;5109858;27;20043;-80
2023/10/29 00:21:46;;;;;;;4.28;2.00;;;8.30;70.80;;;;;;5117233;27;20043;-81
2023/10/29 00:24:33;;;;;;;5.97;2.45;;;8.30;99.90;;;;;;5117318;27;20178;-79
2023/10/29 00:27:21;;;;;;;6.63;2.30;;;8.40;94.10;;;;;;5099668;27;20055;-79
2023/10/29 00:30:10;;;;;;;6.10;2.25;;;8.30;95.70;;;;;;5101607;28;20041;-80
2023/10/29 00:32:57;;;;;;;3.88;2.10;;;8.30;76.00;;;;;;5098266;27;20039;-77
2023/10/29 00:35:48;;;;;;;6.00;2.25;;;8.30;1.00;;;;;;5109193;27;20047;-78
2023/10/29 00:38:36;;;;;;;8.93;2.53;;;8.20;40.30;;;;;;5111258;27;20036;-80
2023/10/29 00:41:26;;;;;;;5.80;2.17;;;8.20;91.20;;;;;;5115378;27;20051;-79
2023/10/29 00:44:16;;;;;;;8.52;2.30;;;8.20;68.60;;;;;;5103097;27;20043;-79
2023/10/29 00:47:08;;;;;;;8.38;2.60;;;8.20;10.50;;;;;;5115693;27;20047;-78
2023/10/29 00:49:58;;;;;;;7.90;2.45;;;8.20;29.60;;;;;;5115806;27;20144;-80
2023/10/29 00:52:51;;;;;;;5.80;2.40;;;8.20;15.10;;;;;;5116377;27;20039;-79
2023/10/29 00:55:39;;;;;;;7.10;2.50;;;8.30;1.00;;;;;;5108785;27;20043;-80
2023/10/29 00:58:30;;;;;;;3.05;1.90;;;8.20;1.00;;;;;;5116135;27;20051;-80
2023/10/29 01:01:20;;;;;;;5.50;2.25;;;8.20;7.10;;;;;;5116431;27;20035;-80
2023/10/29 01:04:08;;;;;;;4.88;1.83;;;8.20;16.10;;;;;;5117064;27;20043;-79
2023/10/29 01:06:56;;;;;;;5.18;2.00;;;8.30;1.00;;;;;;5117030;27;20133;-79
2023/10/29 01:09:59;;;;;;;4.22;2.03;;;8.50;99.90;;;;;;5114600;27;20039;-82
2023/10/29 01:12:49;;;;;;;4.30;1.92;;;8.70;99.90;;;;;;5134816;27;20050;-79
2023/10/29 01:15:36;;;;;;;5.10;1.95;;;8.70;99.90;;;;;;5107111;28;20044;-79
2023/10/29 01:18:24;;;;;;;4.07;2.08;;;8.70;1.00;;;;;;5110143;27;20047;-80
2023/10/29 01:21:13;;;;;;;6.40;2.15;;;8.80;99.90;;;;;;5119543;27;20043;-80
2023/10/29 01:24:02;;;;;;;4.45;1.90;;;8.80;99.90;;;;;;5113221;27;20044;-79
2023/10/29 01:26:49;;;;;;;6.13;2.15;;;8.90;99.90;;;;;;5103044;28;20332;-79
2023/10/29 01:29:36;;;;;;;2.45;1.80;;;9.00;1.00;;;;;;5110089;28;20039;-79
2023/10/29 01:32:24;;;;;;;3.35;1.70;;;9.10;99.90;;;;;;5114678;27;20095;-80
2023/10/29 01:35:11;;;;;;;2.60;2.08;;;9.00;1.00;;;;;;5101391;28;20043;-79
2023/10/29 01:38:01;;;;;;;5.63;2.83;;;8.90;1.00;;;;;;5115451;28;20077;-79
2023/10/29 01:40:51;;;;;;;2.83;1.60;;;8.80;94.80;;;;;;5106390;28;20039;-79
2023/10/29 01:43:38;;;;;;;3.80;1.70;;;8.70;1.00;;;;;;5112452;28;20051;-79
2023/10/29 01:46:27;;;;;;;4.72;1.88;;;8.60;99.90;;;;;;5110187;28;20084;-79
2023/10/29 01:49:17;;;;;;;6.72;2.75;;;8.50;99.90;;;;;;5106864;28;20461;-78
2023/10/29 01:52:08;;;;;;;5.20;1.60;;;8.50;1.00;;;;;;5117241;28;20123;-79
2023/10/29 01:54:55;;;;;;;5.32;1.90;;;8.50;99.90;;;;;;5090696;28;20054;-79
2023/10/29 01:57:45;;;;;;;4.38;1.85;;;8.40;46.30;;;;;;5114052;28;20575;-79
2023/10/29 02:00:35;;;;;;;6.00;2.03;;;8.40;99.90;;;;;;5112522;28;20043;-79
2023/10/29 02:03:23;;;;;;;3.42;1.90;;;8.30;99.90;;;;;;5117117;28;20110;-80
2023/10/29 02:06:20;;;;;;;4.70;2.05;;;8.30;99.90;;;;;;5117720;28;20074;-80
2023/10/29 02:09:13;;;;;;;4.20;2.03;;;8.10;1.00;;;;;;5106340;28;20055;-79
2023/10/29 02:12:00;;;;;;;3.65;1.70;;;8.20;99.90;;;;;;5108984;28;20126;-79
2023/10/29 02:14:48;;;;;;;5.85;2.00;;;8.10;1.00;;;;;;5103784;28;20074;-79
2023/10/29 02:17:38;;;;;;;5.85;2.22;;;8.00;99.90;;;;;;5107894;28;20051;-79
2023/10/29 02:20:28;;;;;;;4.78;1.90;;;7.90;1.00;;;;;;5101794;28;20047;-79
2023/10/29 02:23:18;;;;;;;4.57;1.88;;;7.80;99.90;;;;;;5100510;28;20040;-79
2023/10/29 02:26:11;;;;;;;5.88;1.88;;;7.60;99.90;;;;;;5114923;28;20359;-79
2023/10/29 02:28:59;;;;;;;;;;;7.60;1.00;;;;;;5120822;27;20051;-79
2023/10/29 02:31:47;;;;;;;6.05;2.33;;;7.50;1.00;;;;;;5116627;27;20287;-80
2023/10/29 02:34:34;;;;;;;9.38;2.65;;;7.40;17.10;;;;;;5115307;27;20200;-79
2023/10/29 02:37:24;;;;;;;4.65;2.58;;;7.30;77.50;;;;;;5134139;27;20043;-78
2023/10/29 02:40:17;;;;;;;6.20;2.63;;;7.30;81.40;;;;;;5116170;27;20180;-80
2023/10/29 02:43:08;;;;;;;3.05;2.00;;;7.30;99.90;;;;;;5105623;27;20147;-80
2023/10/29 02:45:55;;;;;;;6.32;2.65;;;7.40;83.20;;;;;;5110070;27;20063;-80
2023/10/29 02:48:43;;;;;;;3.67;1.65;;;7.40;94.00;;;;;;5117813;27;20039;-79
2023/10/29 02:51:31;;;;;;;5.70;2.20;;;7.60;1.00;;;;;;5104808;27;20112;-80
2023/10/29 02:54:20;;;;;;;6.78;2.05;;;7.90;99.90;;;;;;5110031;27;20056;-80
2023/10/29 02:57:13;;;;;;;3.17;1.95;;;8.00;56.40;;;;;;5109389;27;20055;-79
2023/10/29 03:00:01;;;;;;;4.13;1.63;;;8.00;1.00;;;;;;5109504;27;20152;-78
2023/10/29 03:02:50;;;;;;;5.07;1.75;;;8.30;52.90;;;;;;5112375;27;20050;-79
2023/10/29 03:05:40;;;;;;;3.38;1.85;;;8.40;1.00;;;;;;5105620;27;20173;-79
2023/10/29 03:08:31;;;;;;;4.47;1.55;;;8.30;99.90;;;;;;5104487;27;20344;-79
2023/10/29 03:11:18;;;;;;;3.90;1.90;;;8.20;99.90;;;;;;5113690;27;20039;-78
2023/10/29 03:14:08;;;;;;;4.50;1.98;;;8.20;1.00;;;;;;5116920;27;20050;-78
2023/10/29 03:17:00;;;;;;;3.78;1.60;;;8.10;1.00;;;;;;5112005;27;20136;-80
2023/10/29 03:19:52;;;;;;;2.88;1.73;;;8.00;99.90;;;;;;5108970;27;20051;-79
2023/10/29 03:22:42;;;;;;;7.88;2.45;;;7.90;99.90;;;;;;5122713;27;20047;-80
2023/10/29 03:25:29;;;;;;;4.53;1.98;;;7.80;99.90;;;;;;5110240;27;20063;-79
2023/10/29 03:28:17;;;;;;;4.25;1.58;;;7.80;1.00;;;;;;5118356;27;20047;-79
2023/10/29 03:31:13;;;;;;;4.15;1.80;;;7.70;95.20;;;;;;5120697;28;20107;-78
2023/10/29 03:34:01;;;;;;;6.88;2.10;;;7.80;99.90;;;;;;5111332;27;20617;-79
2023/10/29 03:36:51;;;;;;;2.78;1.58;;;7.90;99.90;;;;;;5107051;27;20039;-80
2023/10/29 03:39:38;;;;;;;4.32;1.80;;;8.10;99.90;;;;;;5108959;27;20043;-78
2023/10/29 03:42:30;;;;;;;1.83;1.60;;;8.50;1.00;;;;;;5104478;27;20126;-79
2023/10/29 03:45:18;;;;;;;4.38;1.50;;;8.60;99.90;;;;;;5114692;27;20039;-78
2023/10/29 03:48:06;;;;;;;3.67;1.80;;;8.90;1.00;;;;;;5111381;27;20054;-80
2023/10/29 03:50:53;;;;;;;5.28;1.80;;;8.90;99.90;;;;;;5105073;27;20047;-79
2023/10/29 03:53:41;;;;;;;3.47;1.40;;;9.00;1.00;;;;;;5109587;27;20054;-78
2023/10/29 03:56:30;;;;;;;3.95;1.23;;;9.40;1.00;;;;;;5110030;27;20070;-79
2023/10/29 03:59:20;;;;;;;2.95;1.30;;;10.00;1.00;;;;;;5108174;27;20358;-79
2023/10/29 04:02:07;;;;;;;2.72;1.73;;;10.30;1.00;;;;;;5105930;27;20050;-80
2023/10/29 04:04:57;;;;;;;1.17;1.05;;;10.60;99.90;;;;;;5105852;27;20172;-79
2023/10/29 04:07:56;;;;;;;2.38;1.17;;;10.70;39.50;;;;;;5110397;27;20043;-79
2023/10/29 04:10:43;;;;;;;2.40;1.20;;;10.80;1.00;;;;;;5110733;27;20035;-79
2023/10/29 04:13:34;;;;;;;4.53;1.08;;;11.10;99.90;;;;;;5109136;27;20128;-79
2023/10/29 04:16:21;;;;;;;12.00;1.38;;;11.20;99.90;;;;;;5111630;27;20036;-79
2023/10/29 04:19:09;;;;;;;1.33;1.10;;;11.10;99.90;;;;;;5122468;27;20071;-79
2023/10/29 04:21:56;;;;;;;1.75;1.10;;;11.00;99.90;;;;;;5110959;27;20172;-79
2023/10/29 04:24:49;;;;;;;3.22;1.25;;;11.00;99.90;;;;;;5116718;27;20493;-80
2023/10/29 04:27:40;;;;;;;2.28;0.90;;;11.00;99.90;;;;;;5118520;27;20539;-78
2023/10/29 04:30:27;;;;;;;1.70;1.13;;;11.00;99.90;;;;;;5102268;27;20141;-79
2023/10/29 04:33:15;;;;;;;1.50;1.00;;;10.80;99.90;;;;;;5107198;27;20050;-78
2023/10/29 04:36:03;;;;;;;1.30;1.10;;;10.80;99.90;;;;;;5113161;27;20039;-78
2023/10/29 04:38:51;;;;;;;3.60;1.30;;;10.90;99.90;;;;;;5116772;27;20525;-79
2023/10/29 04:41:38;;;;;;;3.78;1.35;;;11.10;89.80;;;;;;5111770;27;20195;-78
2023/10/29 04:44:27;;;;;;;2.13;1.20;;;11.00;62.60;;;;;;5106559;27;20039;-78
2023/10/29 04:47:15;;;;;;;2.72;1.20;;;10.90;58.90;;;;;;5111507;27;20045;-78
2023/10/29 04:50:03;;;;;;;3.97;1.65;;;10.70;99.90;;;;;;5100886;27;20051;-79
2023/10/29 04:52:51;;;;;;;1.90;1.38;;;10.40;99.90;;;;;;5112811;27;20044;-79
2023/10/29 04:55:41;;;;;;;14.43;1.50;;;10.20;99.90;;;;;;5130918;27;20050;-78
2023/10/29 04:58:34;;;;;;;2.80;1.10;;;9.90;99.90;;;;;;5109073;28;20039;-79
2023/10/29 05:01:21;;;;;;;4.15;1.80;;;9.60;99.90;;;;;;5104108;27;20379;-80
2023/10/29 05:04:13;;;;;;;4.40;1.42;;;9.50;99.90;;;;;;5096584;28;20046;-81
2023/10/29 05:07:01;;;;;;;3.53;1.50;;;9.20;99.90;;;;;;5109189;28;20043;-80
2023/10/29 05:09:49;;;;;;;2.58;1.52;;;9.00;99.90;;;;;;5105470;27;20130;-79
2023/10/29 05:12:38;;;;;;;2.33;1.60;;;8.90;99.90;;;;;;5115216;27;20065;-80
2023/10/29 05:15:26;;;;;;;2.95;1.67;;;8.80;1.00;;;;;;5115555;27;20502;-80
2023/10/29 05:18:13;;;;;;;2.42;1.48;;;8.70;1.00;;;;;;5109229;28;20039;-80
2023/10/29 05:21:03;;;;;;;2.25;1.38;;;8.80;1.00;;;;;;5117435;27;20051;-80
2023/10/29 05:23:50;;;;;;;3.42;1.80;;;8.70;27.10;;;;;;5115182;27;20039;-79
2023/10/29 05:26:42;;;;;;;2.40;1.63;;;8.80;99.90;;;;;;5110140;27;20157;-80
2023/10/29 05:29:32;;;;;;;3.70;1.77;;;8.80;99.90;;;;;;5112229;27;20154;-80
2023/10/29 05:32:21;;;;;;;5.78;2.30;;;8.80;99.90;;;;;;5111381;28;20040;-78
2023/10/29 05:35:09;;;;;;;5.03;2.38;;;8.80;99.90;;;;;;5109433;28;20108;-80
2023/10/29 05:37:56;;;;;;;7.63;2.42;;;8.80;99.90;;;;;;5110907;28;20486;-79
2023/10/29 05:40:47;;;;;;;4.53;2.00;;;8.80;99.90;;;;;;5104347;28;20036;-80
2023/10/29 05:43:37;;;;;;;2.58;1.60;;;8.80;99.90;;;;;;5116943;28;20131;-79
2023/10/29 05:46:24;;;;;;;4.72;2.42;;;8.80;99.90;;;;;;5121479;28;20369;-79
2023/10/29 05:49:11;;;;;;;7.15;2.08;;;8.80;99.90;;;;;;5131692;28;20039;-80
2023/10/29 05:52:01;;;;;;;2.67;1.48;;;8.80;1.00;;;;;;5104866;28;20143;-81
2023/10/29 05:54:49;;;;;;;1.60;1.48;;;8.80;1.00;;;;;;5116373;28;20043;-79
2023/10/29 05:57:38;;;;;;;6.32;1.38;;;8.80;1.00;;;;;;5118376;28;20169;-79
2023/10/29 06:00:26;;;;;;;5.03;1.55;;;8.90;1.00;;;;;;5100578;28;20105;-80
2023/10/29 06:03:13;;;;;;;3.90;2.00;;;9.00;99.90;;;;;;5110014;27;20132;-79
2023/10/29 06:06:01;;;;;;;2.08;1.45;;;9.10;99.90;;;;;;5118735;27;20185;-80
2023/10/29 06:08:51;;;;;;;3.30;1.90;;;9.10;99.90;;;;;;5113611;28;20051;-79
2023/10/29 06:11:42;;;;;;;2.13;1.20;;;9.10;99.90;;;;;;5105349;27;20627;-80
2023/10/29 06:14:30;;;;;;;2.97;1.50;;;9.10;99.90;;;;;;5113214;27;20088;-79
2023/10/29 06:17:19;;;;;;;12.48;8.23;;;9.10;99.90;;;;;;5106070;27;20351;-79
2023/10/29 06:20:20;;;;;;;14.63;8.57;;;9.20;99.90;;;;;;5106969;27;20486;-79
2023/10/29 06:23:08;;;;;;;11.88;7.18;;;9.30;99.90;;;;;;5115250;27;20050;-79
2023/10/29 06:25:58;;;;;;;5.80;3.92;;;9.40;99.90;;;;;;5111402;28;20050;-79
2023/10/29 06:28:48;;;;;;;3.65;2.50;;;9.50;99.90;;;;;;5113821;27;20051;-79
2023/10/29 06:31:40;;;;;;;5.47;1.90;;;9.80;99.90;;;;;;5117154;27;20134;-79
2023/10/29 06:34:30;;;;;;;4.72;2.15;;;10.00;16.80;;;;;;5109839;27;20055;-79
2023/10/29 06:37:17;;;;;;;5.45;1.80;;;10.20;1.00;;;;;;5104695;27;20047;-79
2023/10/29 06:40:08;;;;;;;1.73;1.50;;;10.30;1.00;;;;;;5109530;27;20043;-80
2023/10/29 06:42:56;;;;;;;2.40;1.73;;;10.50;1.00;;;;;;5112854;27;20673;-79
2023/10/29 06:45:45;;;;;;;1.88;1.45;;;10.50;1.00;;;;;;5114576;27;20359;-79
2023/10/29 06:48:41;;;;;;;2.38;1.73;;;10.60;99.90;;;;;;5119037;27;20043;-79
2023/10/29 06:51:29;;;;;;;3.22;1.27;;;10.70;99.90;;;;;;5117957;27;20050;-79
2023/10/29 06:54:16;;;;;;;2.22;1.30;;;10.70;99.90;;;;;;5108823;27;20086;-79
2023/10/29 06:57:05;;;;;;;2.33;1.38;;;10.70;99.90;;;;;;5111872;27;20074;-79
2023/10/29 06:59:56;;;;;;;3.85;1.42;;;10.80;99.90;;;;;;5116291;27;20470;-80
2023/10/29 07:02:46;;;;;;;1.73;1.17;;;10.90;99.90;;;;;;5109733;27;20043;-78
2023/10/29 07:05:34;;;;;;;5.30;1.52;;;10.90;99.90;;;;;;5116283;27;20139;-79
2023/10/29 07:08:21;;;;;;;4.65;1.70;;;11.00;99.90;;;;;;5114345;27;20058;-79
2023/10/29 07:11:12;;;;;;;5.22;1.75;;;11.00;99.90;;;;;;5117962;27;20050;-78
2023/10/29 07:13:59;;;;;;;4.60;1.60;;;11.00;99.90;;;;;;5118427;27;20043;-79
2023/10/29 07:16:48;;;;;;;4.55;1.88;;;11.10;99.90;;;;;;5115849;27;20043;-79
2023/10/29 07:19:39;;;;;;;5.55;1.50;;;11.10;99.90;;;;;;5117202;27;20071;-79
2023/10/29 07:22:27;;;;;;;2.47;1.25;;;11.20;99.90;;;;;;5113462;27;20047;-79
2023/10/29 07:25:14;;;;;;;2.45;1.45;;;11.20;99.90;;;;;;5113793;27;20468;-80
2023/10/29 07:28:04;;;;;;;3.55;1.50;;;11.30;99.90;;;;;;5108628;27;20697;-80
2023/10/29 07:30:52;;;;;;;3.17;1.52;;;11.40;99.90;;;;;;5118799;27;20054;-79
2023/10/29 07:33:42;;;;;;;4.00;1.60;;;11.50;99.90;;;;;;5109803;27;20227;-81
2023/10/29 07:36:29;;;;;;;3.85;2.28;;;11.60;99.90;;;;;;5113170;27;20121;-80
2023/10/29 07:39:17;;;;;;;6.63;2.45;;;11.70;99.90;;;;;;5125420;27;20035;-80
2023/10/29 07:42:04;;;;;;;8.80;3.78;;;11.80;99.90;;;;;;5116625;27;20046;-80
2023/10/29 07:44:56;;;;;;;5.38;2.70;;;11.80;99.90;;;;;;5119326;27;20172;-80
2023/10/29 07:47:43;;;;;;;2.25;1.80;;;11.90;99.90;;;;;;5128126;27;20043;-80
2023/10/29 07:50:30;;;;;;;4.35;2.30;;;11.90;99.90;;;;;;5113127;28;20466;-80
2023/10/29 07:53:21;;;;;;;6.45;2.10;;;11.90;99.90;;;;;;5111664;27;20051;-80
2023/10/29 07:56:20;;;;;;;6.78;2.38;;;12.00;99.90;;;;;;5110451;27;20043;-80
2023/10/29 07:59:07;;;;;;;4.53;2.70;;;12.10;99.90;;;;;;5105406;28;20494;-81
2023/10/29 08:01:57;;;;;;;3.38;2.63;;;12.20;99.90;;;;;;5101186;28;20092;-80
2023/10/29 08:04:44;;;;;;;3.85;1.95;;;12.20;99.90;;;;;;5126568;27;20042;-80
2023/10/29 08:07:32;;;;;;;2.53;1.70;;;12.30;99.90;;;;;;5141629;27;20047;-79
2023/10/29 08:10:20;;;;;;;3.30;1.48;;;12.40;99.90;;;;;;5113677;27;20043;-79
2023/10/29 08:13:10;;;;;;;3.47;1.60;;;12.50;99.90;;;;;;5132747;27;20039;-80
2023/10/29 08:16:04;;;;;;;4.28;1.70;;;12.60;99.90;;;;;;5105375;27;20419;-79
2023/10/29 08:18:54;;;;;;;3.05;1.75;;;12.70;99.90;;;;;;5108651;27;20047;-80
2023/10/29 08:21:42;;;;;;;7.15;1.63;;;12.70;99.90;;;;;;5116017;27;20067;-80
2023/10/29 08:24:32;;;;;;;3.08;1.48;;;12.70;99.90;;;;;;5131414;27;20043;-81
2023/10/29 08:27:20;;;;;;;2.80;1.70;;;12.90;99.90;;;;;;5103615;27;20055;-80
2023/10/29 08:30:10;;;;;;;3.58;2.05;;;13.00;99.90;;;;;;5118720;27;20062;-80
2023/10/29 08:32:58;;;;;;;3.30;2.13;;;13.10;99.90;;;;;;5113441;27;20047;-81
2023/10/29 08:35:45;;;;;;;3.58;1.60;;;13.20;99.90;;;;;;5112561;27;20616;-80
2023/10/29 08:38:33;;;;;;;3.42;1.40;;;13.40;99.90;;;;;;5106117;27;20039;-78
2023/10/29 08:41:25;;;;;;;3.35;1.40;;;13.50;99.90;;;;;;5115830;27;20049;-79
2023/10/29 08:44:14;;;;;;;2.35;1.35;;;13.60;89.10;;;;;;5111147;27;20040;-81
2023/10/29 08:47:02;;;;;;;3.72;1.40;;;13.70;72.70;;;;;;5115549;27;20069;-80
2023/10/29 08:49:53;;;;;;;2.83;1.30;;;13.70;68.70;;;;;;5108638;28;20383;-81
2023/10/29 08:52:40;;;;;;;4.15;1.40;;;13.80;73.50;;;;;;5111127;27;20047;-81
2023/10/29 08:55:33;;;;;;;3.90;1.60;;;13.80;64.80;;;;;;5116325;27;20039;-80
2023/10/29 08:58:21;;;;;;;4.75;1.67;;;13.80;59.30;;;;;;5115400;27;20058;-80
2023/10/29 09:01:12;;;;;;;2.28;1.45;;;13.80;55.30;;;;;;5115226;27;20126;-80
2023/10/29 09:04:03;;;;;;;3.08;1.15;;;13.70;46.90;;;;;;5111115;27;20693;-80
2023/10/29 09:06:54;;;;;;;2.85;1.20;;;13.60;81.10;;;;;;5117028;27;20058;-80
2023/10/29 09:09:44;;;;;;;2.65;1.77;;;13.50;96.60;;;;;;5110320;27;20039;-80
2023/10/29 09:12:31;;;;;;;3.83;1.63;;;13.60;99.90;;;;;;5116833;27;20050;-81
2023/10/29 09:15:19;;;;;;;2.22;1.65;;;13.60;99.90;;;;;;5116954;27;20043;-81
2023/10/29 09:18:07;;;;;;;2.47;1.70;;;13.80;99.90;;;;;;5118954;27;20050;-81
2023/10/29 09:20:56;;;;;;;4.22;2.05;;;14.10;99.90;;;;;;5113114;27;20058;-82
2023/10/29 09:23:46;;;;;;;3.13;1.20;;;14.30;99.90;;;;;;5116256;27;20048;-80
2023/10/29 09:26:36;;;;;;;3.35;1.48;;;14.50;72.30;;;;;;5129178;27;20035;-80
2023/10/29 09:29:26;;;;;;;1.50;1.10;;;14.60;52.00;;;;;;5112369;27;20054;-79
2023/10/29 09:32:16;;;;;;;2.13;1.35;;;14.70;16.30;;;;;;5113930;28;20363;-78
2023/10/29 09:35:07;;;;;;;4.35;1.60;;;14.70;30.10;;;;;;5105568;28;20042;-80
2023/10/29 09:37:58;;;;;;;3.78;1.70;;;14.70;57.80;;;;;;5131018;27;20048;-79
2023/10/29 09:40:51;;;;;;;6.28;3.15;;;14.70;16.50;;;;;;5120610;27;20043;-80
2023/10/29 09:43:47;;;;;;;5.10;2.33;;;14.80;48.70;;;;;;5119945;27;20134;-80
2023/10/29 09:46:37;;;;;;;5.85;2.72;;;14.70;67.70;;;;;;5111545;27;20046;-79
2023/10/29 09:49:25;;;;;;;3.13;1.35;;;15.00;88.30;;;;;;5113385;27;20445;-79
2023/10/29 09:52:19;;;;;;;3.53;1.60;;;15.20;13.00;;;;;;5114091;27;20367;-80
2023/10/29 09:55:09;;;;;;;1.67;1.30;;;15.20;1.00;;;;;;5105501;27;20043;-80
2023/10/29 09:57:57;;;;;;;5.57;1.52;;;15.10;1.00;;;;;;5120059;27;20130;-79
2023/10/29 10:00:47;;;;;;;3.78;1.58;;;15.10;1.00;;;;;;5118803;27;20042;-81
2023/10/29 10:03:35;;;;;;;6.70;1.55;;;15.00;1.00;;;;;;5113860;27;20044;-81
2023/10/29 10:06:27;;;;;;;3.58;1.13;;;15.00;1.00;;;;;;5117124;27;20542;-81
2023/10/29 10:09:14;;;;;;;2.40;1.40;;;14.90;1.00;;;;;;5128469;27;20789;-80
2023/10/29 10:12:05;;;;;;;1.90;1.30;;;14.90;1.00;;;;;;5118344;27;20039;-80
2023/10/29 10:15:04;;;;;;;3.45;1.30;;;14.90;1.00;;;;;;5100044;28;20050;-80
2023/10/29 10:18:01;;;;;;;3.20;1.52;;;14.90;1.00;;;;;;5112996;27;20058;-80
2023/10/29 10:20:57;;;;;;;2.10;1.25;;;15.10;1.00;;;;;;5119866;27;20043;-80
2023/10/29 10:23:51;;;;;;;6.30;1.17;;;15.20;1.00;;;;;;5105334;27;20411;-80
2023/10/29 10:26:40;;;;;;;2.08;1.20;;;15.30;1.00;;;;;;5136328;27;20045;-81
2023/10/29 10:29:34;;;;;;;2.00;1.02;;;15.50;1.00;;;;;;5130327;27;20063;-81
2023/10/29 10:32:26;;;;;;;1.73;0.82;;;15.60;1.00;;;;;;5120488;27;20050;-81
2023/10/29 10:35:16;;;;;;;3.03;0.88;;;15.60;1.00;;;;;;5118850;27;20074;-81
2023/10/29 10:38:06;;;;;;;1.80;1.00;;;15.70;1.00;;;;;;5104987;27;20475;-80
2023/10/29 10:41:01;;;;;;;4.82;1.00;;;15.90;1.00;;;;;;5134154;27;20044;-79
2023/10/29 10:44:11;;;;;;;3.10;0.88;;;16.10;99.90;;;;;;5114669;27;20392;-81
2023/10/29 10:47:03;;;;;;;2.75;0.77;;;16.40;99.90;;;;;;5108778;27;20474;-79
2023/10/29 10:49:51;;;;;;;1.60;1.13;;;16.60;99.90;;;;;;5115448;27;20169;-80
2023/10/29 10:52:47;;;;;;;0.95;0.55;;;16.60;99.90;;;;;;5134845;27;20047;-79
2023/10/29 10:55:35;;;;;;;2.85;1.02;;;16.60;99.90;;;;;;5107796;27;20058;-80
2023/10/29 10:58:46;;;;;;;1.08;0.82;;;16.60;99.90;;;;;;5108009;27;20038;-80
2023/10/29 11:01:38;;;;;;;2.53;1.33;;;16.60;99.90;;;;;;5119971;27;20459;-79
2023/10/29 11:04:27;;;;;;;3.63;0.93;;;16.60;99.90;;;;;;5115184;27;20200;-79
2023/10/29 11:07:19;;;;;;;4.00;1.10;;;16.60;99.90;;;;;;5110627;27;20035;-79
2023/10/29 11:10:13;;;;;;;1.27;1.00;;;16.60;99.90;;;;;;5116607;27;20047;-81
2023/10/29 11:13:24;;;;;;;1.95;0.80;;;16.60;99.90;;;;;;5115563;27;20039;-80
2023/10/29 11:16:23;;;;;;;1.55;0.80;;;16.60;99.90;;;;;;5105331;27;20058;-80
2023/10/29 11:19:45;;;;;;;3.33;1.15;;;16.50;99.90;;;;;;5116688;27;20054;-80
2023/10/29 11:22:49;;;;;;;2.35;0.80;;;16.40;99.90;;;;;;5117541;27;20035;-81
2023/10/29 11:25:39;;;;;;;1.25;0.70;;;16.40;99.90;;;;;;5114425;27;20065;-80
2023/10/29 11:28:34;;;;;;;1.45;1.00;;;16.40;99.90;;;;;;5116696;27;20066;-81
2023/10/29 11:31:25;;;;;;;1.35;0.90;;;16.60;99.90;;;;;;5099920;27;20374;-81
2023/10/29 11:34:15;;;;;;;4.18;0.88;;;16.60;99.90;;;;;;5124886;27;20083;-81
2023/10/29 11:37:35;;;;;;;0.77;0.77;;;16.90;99.90;;;;;;5116271;27;20035;-80
2023/10/29 11:40:26;;;;;;;2.75;0.70;;;17.10;99.90;;;;;;5103590;27;20172;-79
2023/10/29 11:43:23;;;;;;;2.58;0.82;;;17.30;99.90;;;;;;5131993;27;20031;-79
2023/10/29 11:46:11;;;;;;;2.38;0.90;;;17.40;99.90;;;;;;5124754;27;20435;-80
2023/10/29 11:49:08;;;;;;;1.45;0.80;;;17.40;99.90;;;;;;5116264;27;20439;-79
2023/10/29 11:52:01;;;;;;;1.00;0.70;;;17.30;99.90;;;;;;5111512;27;20039;-79
2023/10/29 11:54:50;;;;;;;2.13;0.70;;;17.30;99.90;;;;;;5117050;27;20039;-79
2023/10/29 11:57:43;;;;;;;2.30;0.93;;;17.20;99.90;;;;;;5113805;27;20043;-80
2023/10/29 12:00:38;;;;;;;0.70;0.65;;;17.30;99.90;;;;;;5106940;27;20050;-80
2023/10/29 12:03:32;;;;;;;1.83;0.60;;;17.60;99.90;;;;;;5115810;27;20126;-81
2023/10/29 12:06:20;;;;;;;1.00;0.70;;;18.30;99.90;;;;;;5113691;27;20058;-79
2023/10/29 12:09:17;;;;;;;1.70;0.90;;;18.40;99.90;;;;;;5115633;27;20042;-81
2023/10/29 12:12:13;;;;;;;1.50;0.70;;;18.70;99.90;;;;;;5110294;28;20047;-80
2023/10/29 12:15:02;;;;;;;1.60;0.80;;;18.80;99.90;;;;;;5106339;27;20130;-80
2023/10/29 12:17:53;;;;;;;2.80;0.75;;;19.40;99.90;;;;;;5129033;27;20132;-79
2023/10/29 12:20:41;;;;;;;4.28;0.70;;;19.40;99.90;;;;;;5112963;27;20039;-79
2023/10/29 12:23:28;;;;;;;2.35;0.77;;;18.70;92.40;;;;;;5114038;27;20051;-80
2023/10/29 12:26:17;;;;;;;1.50;0.70;;;18.40;94.70;;;;;;5103528;28;20058;-81
2023/10/29 12:29:09;;;;;;;1.95;0.90;;;18.20;93.10;;;;;;5108005;27;20099;-81
2023/10/29 12:31:57;;;;;;;2.25;0.90;;;18.10;93.60;;;;;;5105157;27;20359;-82
2023/10/29 12:34:58;;;;;;;1.98;0.52;;;18.00;93.60;;;;;;5117616;27;20087;-82
2023/10/29 12:37:55;;;;;;;1.67;0.90;;;18.00;93.60;;;;;;5118759;27;20054;-81
2023/10/29 12:41:12;;;;;;;1.67;0.70;;;17.90;91.10;;;;;;5110959;27;20125;-80
2023/10/29 12:44:02;;;;;;;1.10;0.73;;;17.80;89.70;;;;;;5119453;27;20043;-82
2023/10/29 12:46:53;;;;;;;3.47;0.80;;;17.70;91.80;;;;;;5115607;27;20039;-80
2023/10/29 12:49:45;;;;;;;2.38;1.00;;;17.70;91.10;;;;;;5136475;27;20059;-80
2023/10/29 12:52:34;;;;;;;1.88;0.75;;;17.70;82.80;;;;;;5127030;27;20050;-81
2023/10/29 12:55:22;;;;;;;3.35;0.82;;;17.50;88.20;;;;;;5107329;27;20351;-80
2023/10/29 12:58:12;;;;;;;2.65;0.93;;;17.60;84.20;;;;;;5108929;27;20051;-80
2023/10/29 13:01:03;;;;;;;2.25;0.77;;;17.80;81.70;;;;;;5102520;27;20068;-79
2023/10/29 13:03:51;;;;;;;1.02;0.73;;;17.90;92.00;;;;;;5115723;27;20131;-81
2023/10/29 13:06:39;;;;;;;1.13;0.70;;;18.00;78.10;;;;;;5104786;27;20050;-82
2023/10/29 13:09:34;;;;;;;1.63;0.70;;;18.10;70.30;;;;;;5115934;27;20054;-79
2023/10/29 13:12:21;;;;;;;1.35;0.57;;;18.20;65.80;;;;;;5113369;28;20133;-79
2023/10/29 13:15:09;;;;;;;1.23;0.50;;;18.40;57.00;;;;;;5094901;28;20047;-81
2023/10/29 13:18:00;;;;;;;1.27;0.70;;;18.90;47.90;;;;;;5105234;28;20435;-80
2023/10/29 13:21:00;;;;;;;1.02;0.50;;;18.70;49.50;;;;;;5107204;27;20183;-81
2023/10/29 13:23:50;;;;;;;0.63;0.45;;;18.50;46.70;;;;;;5092150;27;20177;-80
2023/10/29 13:26:38;;;;;;;1.55;0.70;;;18.50;48.10;;;;;;5116505;27;20039;-80
2023/10/29 13:29:26;;;;;;;1.40;0.50;;;18.60;36.90;;;;;;5095854;28;20383;-79
2023/10/29 13:32:16;;;;;;;1.30;0.60;;;18.50;38.80;;;;;;5112714;27;20047;-79
2023/10/29 13:35:04;;;;;;;1.95;0.50;;;18.40;38.50;;;;;;5115742;28;20359;-79
2023/10/29 13:37:59;;;;;;;1.40;0.70;;;18.30;34.90;;;;;;5111625;28;20113;-80
2023/10/29 13:40:51;;;;;;;1.85;0.68;;;18.20;37.50;;;;;;5114053;28;20134;-81
2023/10/29 13:43:42;;;;;;;;;;;18.00;32.70;;;;;;5104005;28;20127;-80
2023/10/29 13:46:30;;;;;;;4.40;0.82;;;17.90;29.70;;;;;;5114262;28;19927;-80
2023/10/29 13:49:21;;;;;;;2.75;0.60;;;17.90;28.30;;;;;;5108317;28;20039;-80
2023/10/29 13:52:09;;;;;;;1.77;0.85;;;17.90;28.10;;;;;;5146830;28;20059;-86
2023/10/29 13:54:56;;;;;;;1.65;0.95;;;17.90;26.50;;;;;;5126458;28;20051;-87
2023/10/29 13:57:46;;;;;;;2.80;0.73;;;17.70;28.70;;;;;;5133952;28;20106;-89
2023/10/29 14:00:36;;;;;;;0.70;0.68;;;17.60;30.00;;;;;;5128078;28;20042;-88
2023/10/29 14:03:23;;;;;;;1.42;0.90;;;17.60;29.60;;;;;;5110472;28;20049;-80
2023/10/29 14:06:11;;;;;;;0.63;0.55;;;17.60;27.60;;;;;;5134915;28;20040;-88
2023/10/29 14:09:02;;;;;;;2.60;0.73;;;17.60;26.30;;;;;;5140441;28;20047;-87
2023/10/29 14:11:49;;;;;;;3.42;0.90;;;17.50;25.40;;;;;;5151718;27;20015;-78
2023/10/29 14:14:39;;;;;;;1.13;0.60;;;17.50;25.30;;;;;;5131611;28;20399;-89
2023/10/29 14:17:29;;;;;;;1.33;0.63;;;17.60;22.00;;;;;;5126158;28;20623;-88
2023/10/29 14:20:19;;;;;;;1.23;0.63;;;17.60;21.70;;;;;;5132153;27;20066;-88
2023/10/29 14:23:07;;;;;;;3.92;0.73;;;17.70;24.40;;;;;;5133535;27;20058;-89
2023/10/29 14:25:55;;;;;;;1.65;0.60;;;17.60;23.40;;;;;;5154526;27;20043;-89
2023/10/29 14:28:42;;;;;;;0.90;0.80;;;17.70;29.80;;;;;;5154759;27;20039;-90
2023/10/29 14:31:29;;;;;;;1.05;0.70;;;18.10;25.10;;;;;;5127842;27;20047;-90
2023/10/29 14:34:19;;;;;;;4.35;0.75;;;18.30;25.60;;;;;;5119256;27;20120;-81
2023/10/29 14:37:06;;;;;;;0.90;0.70;;;18.30;21.80;;;;;;5125389;27;20055;-90
2023/10/29 14:39:54;;;;;;;1.10;0.88;;;18.00;23.90;;;;;;5140104;27;20104;-90
2023/10/29 14:42:42;;;;;;;2.30;1.15;;;17.70;22.20;;;;;;5140620;27;20039;-87
2023/10/29 14:45:32;;;;;;;1.88;0.95;;;17.50;25.30;;;;;;5126743;27;20043;-88
2023/10/29 14:48:20;;;;;;;3.55;0.88;;;17.40;24.40;;;;;;5128514;27;20035;-82
2023/10/29 14:51:08;;;;;;;1.05;0.73;;;17.30;22.30;;;;;;5125438;27;20054;-88
2023/10/29 14:53:58;;;;;;;1.65;0.95;;;17.20;23.60;;;;;;5146945;27;20047;-88